createdAt,value
2018-01-17T00:01:28.666Z,4.80
2018-01-17T00:04:04.356Z,4.70
2018-01-17T00:06:38.010Z,4.70
2018-01-17T00:09:10.678Z,4.70
2018-01-17T00:11:53.645Z,4.80
2018-01-17T00:14:46.834Z,4.80
2018-01-17T00:17:25.394Z,4.80
2018-01-17T00:19:57.422Z,4.80
2018-01-17T00:22:38.214Z,4.80
2018-01-17T00:25:10.286Z,4.80
2018-01-17T00:27:42.729Z,4.80
2018-01-17T00:30:13.740Z,4.80
2018-01-17T00:33:01.085Z,4.80
2018-01-17T00:35:45.133Z,4.80
2018-01-17T00:38:16.913Z,4.80
2018-01-17T00:40:54.638Z,4.80
2018-01-17T00:43:30.451Z,4.70
2018-01-17T00:46:04.034Z,4.60
2018-01-17T00:48:35.325Z,4.60
2018-01-17T00:51:06.401Z,4.60
2018-01-17T00:53:39.306Z,4.50
2018-01-17T00:56:09.788Z,4.40
2018-01-17T00:58:39.718Z,4.40
2018-01-17T01:01:10.547Z,4.40
2018-01-17T01:03:42.735Z,4.40
2018-01-17T01:06:13.795Z,4.40
2018-01-17T01:08:51.268Z,4.40
2018-01-17T01:11:29.599Z,4.30
2018-01-17T01:14:00.834Z,4.30
2018-01-17T01:16:32.902Z,4.40
2018-01-17T01:19:04.548Z,4.30
2018-01-17T01:21:36.382Z,4.30
2018-01-17T01:24:06.569Z,4.40
2018-01-17T01:26:40.783Z,4.30
2018-01-17T01:29:10.774Z,4.10
2018-01-17T01:31:42.263Z,4.10
2018-01-17T01:34:14.046Z,4.00
2018-01-17T01:36:49.770Z,3.90
2018-01-17T01:39:21.271Z,4.00
2018-01-17T01:41:59.396Z,4.10
2018-01-17T01:44:42.111Z,4.00
2018-01-17T01:47:17.167Z,4.00
2018-01-17T01:49:47.955Z,3.90
2018-01-17T01:52:17.934Z,3.90
2018-01-17T01:54:50.064Z,3.90
2018-01-17T01:57:21.294Z,3.90
2018-01-17T01:59:51.316Z,4.00
2018-01-17T02:02:23.611Z,4.00
2018-01-17T02:04:55.761Z,4.00
2018-01-17T02:07:30.983Z,4.00
2018-01-17T02:10:08.383Z,4.10
2018-01-17T02:12:50.707Z,4.10
2018-01-17T02:15:36.818Z,4.10
2018-01-17T02:18:08.845Z,4.20
2018-01-17T02:20:42.234Z,4.10
2018-01-17T02:23:12.836Z,4.10
2018-01-17T02:25:43.416Z,4.10
2018-01-17T02:28:16.876Z,4.10
2018-01-17T02:30:47.949Z,4.10
2018-01-17T02:33:18.142Z,4.10
2018-01-17T02:35:47.807Z,4.20
2018-01-17T02:38:26.455Z,4.20
2018-01-17T02:41:01.482Z,4.20
2018-01-17T02:43:47.311Z,4.20
2018-01-17T02:46:17.985Z,4.20
2018-01-17T02:49:05.735Z,4.30
2018-01-17T02:51:43.482Z,4.30
2018-01-17T02:55:06.189Z,4.30
2018-01-17T02:57:36.617Z,4.30
2018-01-17T03:00:10.592Z,4.40
2018-01-17T03:03:01.331Z,4.40
2018-01-17T03:05:40.226Z,4.40
2018-01-17T03:08:12.264Z,4.40
2018-01-17T03:10:43.514Z,4.30
2018-01-17T03:13:13.726Z,4.30
2018-01-17T03:15:44.673Z,4.20
2018-01-17T03:18:14.902Z,4.10
2018-01-17T03:20:45.853Z,4.10
2018-01-17T03:23:17.899Z,4.10
2018-01-17T03:25:48.124Z,4.20
2018-01-17T03:28:18.545Z,4.20
2018-01-17T03:30:48.890Z,4.20
2018-01-17T03:33:20.290Z,4.10
2018-01-17T03:35:53.235Z,4.10
2018-01-17T03:38:28.720Z,4.10
2018-01-17T03:40:59.453Z,4.20
2018-01-17T03:43:30.369Z,4.20
2018-01-17T03:46:00.845Z,4.10
2018-01-17T03:48:32.129Z,4.30
2018-01-17T03:51:02.073Z,4.30
2018-01-17T03:53:33.099Z,4.30
2018-01-17T03:56:04.578Z,4.40
2018-01-17T03:58:36.323Z,4.30
2018-01-17T04:01:07.347Z,4.40
2018-01-17T04:03:37.751Z,4.30
2018-01-17T04:06:07.643Z,4.40
2018-01-17T04:08:37.284Z,4.40
2018-01-17T04:11:07.091Z,4.50
2018-01-17T04:13:37.821Z,4.40
2018-01-17T04:16:08.420Z,4.40
2018-01-17T04:18:38.461Z,4.50
2018-01-17T04:21:08.385Z,4.50
2018-01-17T04:23:38.773Z,4.40
2018-01-17T04:26:09.670Z,4.40
2018-01-17T04:28:41.644Z,4.30
2018-01-17T04:31:12.130Z,4.30
2018-01-17T04:33:42.718Z,4.30
2018-01-17T04:36:12.678Z,4.30
2018-01-17T04:38:43.832Z,4.20
2018-01-17T04:41:13.920Z,3.90
2018-01-17T04:43:44.015Z,3.60
2018-01-17T04:46:14.156Z,3.40
2018-01-17T04:48:44.941Z,3.20
2018-01-17T04:51:15.263Z,3.00
2018-01-17T04:53:47.130Z,2.10
2018-01-17T04:56:17.951Z,1.70
2018-01-17T04:58:47.824Z,1.50
2018-01-17T05:01:18.688Z,1.20
2018-01-17T05:03:49.805Z,1.00
2018-01-17T05:06:21.790Z,0.80
2018-01-17T05:08:51.915Z,0.80
2018-01-17T05:11:26.995Z,0.80
2018-01-17T05:13:59.490Z,0.80
2018-01-17T05:16:30.611Z,0.80
2018-01-17T05:19:00.486Z,0.70
2018-01-17T05:21:30.276Z,0.70
2018-01-17T05:24:00.417Z,0.70
2018-01-17T05:26:31.002Z,0.70
2018-01-17T05:29:02.182Z,0.70
2018-01-17T05:31:32.884Z,0.70
2018-01-17T05:34:03.153Z,0.80
2018-01-17T05:36:33.523Z,0.80
2018-01-17T05:39:03.384Z,0.90
2018-01-17T05:41:33.524Z,0.90
2018-01-17T05:44:03.363Z,1.00
2018-01-17T05:46:33.669Z,1.00
2018-01-17T05:49:04.017Z,1.10
2018-01-17T05:51:35.651Z,1.30
2018-01-17T05:54:06.501Z,1.30
2018-01-17T05:56:36.798Z,1.30
2018-01-17T05:59:07.920Z,1.30
2018-01-17T06:01:38.131Z,1.40
2018-01-17T06:04:08.466Z,1.40
2018-01-17T06:06:39.352Z,1.40
2018-01-17T06:09:10.320Z,1.40
2018-01-17T06:11:42.127Z,1.40
2018-01-17T06:14:16.222Z,1.40
2018-01-17T06:16:52.412Z,1.50
2018-01-17T06:19:25.323Z,1.50
2018-01-17T06:22:05.938Z,1.50
2018-01-17T06:24:42.630Z,1.50
2018-01-17T06:27:17.205Z,1.50
2018-01-17T06:29:48.665Z,1.50
2018-01-17T06:32:19.198Z,1.40
2018-01-17T06:34:51.402Z,1.40
2018-01-17T06:37:23.237Z,1.40
2018-01-17T06:39:56.322Z,1.40
2018-01-17T06:42:30.201Z,1.40
2018-01-17T06:45:03.378Z,1.40
2018-01-17T06:47:36.997Z,1.50
2018-01-17T06:50:10.751Z,1.50
2018-01-17T06:52:42.779Z,1.50
2018-01-17T06:55:13.326Z,1.50
2018-01-17T06:57:44.189Z,1.50
2018-01-17T07:00:14.949Z,1.60
2018-01-17T07:02:46.717Z,1.60
2018-01-17T07:05:17.145Z,1.70
2018-01-17T07:07:47.177Z,1.80
2018-01-17T07:10:19.033Z,1.70
2018-01-17T07:12:50.458Z,1.70
2018-01-17T07:15:21.232Z,1.80
2018-01-17T07:17:52.833Z,1.80
2018-01-17T07:20:23.104Z,1.90
2018-01-17T07:22:57.984Z,2.00
2018-01-17T07:25:33.861Z,2.00
2018-01-17T07:28:04.071Z,2.00
2018-01-17T07:30:35.119Z,1.90
2018-01-17T07:33:09.361Z,2.00
2018-01-17T07:35:40.162Z,2.00
2018-01-17T07:38:10.955Z,2.00
2018-01-17T07:40:44.100Z,2.00
2018-01-17T07:43:56.715Z,1.90
2018-01-17T07:46:38.696Z,2.00
2018-01-17T07:49:12.512Z,2.00
2018-01-17T07:51:43.345Z,2.00
2018-01-17T07:54:15.108Z,1.90
2018-01-17T07:56:46.177Z,1.70
2018-01-17T07:59:17.552Z,1.60
2018-01-17T08:01:47.770Z,1.40
2018-01-17T08:04:19.472Z,1.30
2018-01-17T08:06:51.408Z,1.40
2018-01-17T08:09:21.450Z,1.40
2018-01-17T08:11:53.043Z,1.50
2018-01-17T08:14:25.843Z,1.50
2018-01-17T08:16:56.948Z,1.60
2018-01-17T08:19:28.803Z,1.60
2018-01-17T08:22:03.115Z,1.60
2018-01-17T08:24:33.859Z,1.70
2018-01-17T08:27:07.153Z,1.80
2018-01-17T08:29:41.264Z,1.80
2018-01-17T08:32:16.185Z,1.80
2018-01-17T08:34:53.139Z,1.80
2018-01-17T08:37:26.589Z,1.90
2018-01-17T08:40:02.307Z,2.00
2018-01-17T08:42:37.316Z,2.00
2018-01-17T08:45:09.757Z,2.10
2018-01-17T08:47:42.828Z,2.20
2018-01-17T08:50:17.055Z,2.30
2018-01-17T08:52:56.963Z,2.40
2018-01-17T08:55:35.911Z,2.30
2018-01-17T08:58:15.389Z,2.30
2018-01-17T09:01:02.344Z,2.40
2018-01-17T09:03:34.668Z,2.30
2018-01-17T09:06:18.623Z,2.40
2018-01-17T09:08:50.905Z,2.40
2018-01-17T09:11:26.473Z,2.70
2018-01-17T09:14:51.906Z,2.60
2018-01-17T09:17:30.731Z,2.80
2018-01-17T09:20:02.614Z,2.80
2018-01-17T09:22:34.397Z,2.80
2018-01-17T09:25:06.224Z,2.70
2018-01-17T09:27:42.028Z,2.70
2018-01-17T09:30:14.115Z,2.70
2018-01-17T09:32:45.706Z,2.80
2018-01-17T09:35:18.152Z,2.80
2018-01-17T09:37:50.481Z,3.00
2018-01-17T09:40:28.710Z,2.80
2018-01-17T09:42:59.988Z,2.80
2018-01-17T09:45:37.678Z,2.80
2018-01-17T09:48:09.307Z,2.80
2018-01-17T09:50:40.652Z,2.60
2018-01-17T09:53:24.962Z,2.40
2018-01-17T09:55:57.979Z,2.20
2018-01-17T09:58:29.315Z,2.10
2018-01-17T10:01:04.725Z,1.90
2018-01-17T10:03:38.427Z,1.80
2018-01-17T10:06:17.052Z,1.80
2018-01-17T10:08:50.240Z,1.90
2018-01-17T10:11:23.579Z,1.90
2018-01-17T10:13:53.703Z,1.80
2018-01-17T10:16:28.553Z,1.90
2018-01-17T10:19:03.155Z,1.90
2018-01-17T10:21:37.126Z,1.90
2018-01-17T10:24:10.756Z,2.00
2018-01-17T10:26:43.579Z,2.00
2018-01-17T10:29:14.592Z,2.20
2018-01-17T10:31:46.375Z,2.30
2018-01-17T10:34:21.463Z,2.60
2018-01-17T10:36:54.484Z,2.80
2018-01-17T10:39:30.208Z,2.70
2018-01-17T10:42:03.185Z,2.70
2018-01-17T10:44:36.423Z,2.80
2018-01-17T10:47:09.018Z,2.80
2018-01-17T10:49:40.403Z,3.00
2018-01-17T10:52:15.346Z,3.00
2018-01-17T10:54:55.183Z,3.10
2018-01-17T10:57:27.348Z,3.10
2018-01-17T11:00:04.787Z,3.10
2018-01-17T11:02:39.374Z,3.10
2018-01-17T11:05:17.345Z,3.10
2018-01-17T11:07:54.563Z,3.20
2018-01-17T11:10:34.354Z,3.20
2018-01-17T11:13:27.296Z,3.20
2018-01-17T11:15:57.957Z,3.10
2018-01-17T11:18:30.465Z,3.00
2018-01-17T11:21:02.124Z,3.00
2018-01-17T11:23:34.029Z,3.00
2018-01-17T11:26:06.937Z,3.00
2018-01-17T11:28:38.962Z,3.00
2018-01-17T11:31:11.668Z,3.10
2018-01-17T11:33:43.751Z,3.00
2018-01-17T11:36:25.644Z,2.90
2018-01-17T11:39:11.376Z,2.90
2018-01-17T11:41:42.056Z,2.80
2018-01-17T11:44:13.501Z,3.00
2018-01-17T11:46:50.597Z,3.10
2018-01-17T11:49:21.400Z,3.20
2018-01-17T11:51:54.505Z,3.20
2018-01-17T11:54:26.785Z,3.30
2018-01-17T11:57:00.483Z,3.30
2018-01-17T11:59:36.588Z,3.50
2018-01-17T12:02:08.959Z,3.50
2018-01-17T12:04:44.662Z,3.50
2018-01-17T12:07:15.613Z,3.60
2018-01-17T12:09:54.990Z,3.60
2018-01-17T12:12:27.047Z,3.70
2018-01-17T12:15:00.666Z,3.80
2018-01-17T12:17:49.844Z,3.70
2018-01-17T12:20:48.454Z,3.70
2018-01-17T12:23:26.723Z,3.70
2018-01-17T12:25:58.378Z,3.80
2018-01-17T12:28:35.498Z,3.80
2018-01-17T12:31:13.127Z,3.70
2018-01-17T12:33:44.184Z,3.70
2018-01-17T12:36:15.699Z,3.70
2018-01-17T12:38:47.734Z,3.80
2018-01-17T12:41:18.847Z,3.80
2018-01-17T12:43:49.493Z,4.00
2018-01-17T12:46:22.681Z,3.90
2018-01-17T12:48:55.617Z,4.00
2018-01-17T12:51:27.012Z,4.00
2018-01-17T12:53:59.390Z,4.10
2018-01-17T12:56:31.853Z,4.20
2018-01-17T12:59:03.328Z,4.20
2018-01-17T13:01:35.264Z,4.30
2018-01-17T13:04:14.460Z,4.40
2018-01-17T13:06:48.179Z,4.50
2018-01-17T13:09:50.294Z,4.40
2018-01-17T13:12:21.942Z,4.50
2018-01-17T13:15:19.343Z,4.40
2018-01-17T13:17:51.765Z,4.40
2018-01-17T13:20:23.823Z,4.50
2018-01-17T13:23:05.850Z,4.80
2018-01-17T13:25:46.740Z,5.80
2018-01-17T13:28:20.827Z,6.80
2018-01-17T13:30:54.400Z,7.10
2018-01-17T13:36:29.286Z,5.50
2018-01-17T13:39:01.928Z,5.00
2018-01-17T13:41:37.965Z,4.80
2018-01-17T13:44:19.743Z,4.70
2018-01-17T13:46:54.493Z,4.80
2018-01-17T13:49:29.587Z,4.70
2018-01-17T13:52:17.003Z,5.00
2018-01-17T13:55:00.450Z,5.10
2018-01-17T13:57:40.811Z,5.20
2018-01-17T14:00:17.862Z,5.50
2018-01-17T14:03:00.226Z,5.90
2018-01-17T14:08:47.506Z,5.50
2018-01-17T14:11:28.344Z,5.50
2018-01-17T14:14:12.299Z,5.60
2018-01-17T14:16:46.382Z,6.20
2018-01-17T14:19:23.927Z,6.70
2018-01-17T14:21:59.191Z,6.50
2018-01-17T14:24:33.484Z,6.40
2018-01-17T14:29:50.936Z,5.50
2018-01-17T14:36:09.891Z,5.10
2018-01-17T14:39:27.453Z,5.00
2018-01-17T14:42:01.396Z,4.90
2018-01-17T14:44:37.934Z,4.90
2018-01-17T14:47:19.992Z,4.60
2018-01-17T14:49:53.433Z,4.50
2018-01-17T14:52:33.298Z,4.50
2018-01-17T14:55:11.342Z,4.40
2018-01-17T15:01:08.659Z,4.20
2018-01-17T15:08:38.494Z,4.20
2018-01-17T15:11:13.906Z,4.20
2018-01-17T15:13:45.705Z,4.20
2018-01-17T15:19:18.671Z,4.20
2018-01-17T15:21:57.667Z,4.20
2018-01-17T15:24:29.166Z,4.30
2018-01-17T15:27:07.546Z,4.50
2018-01-17T15:29:39.412Z,4.40
2018-01-17T15:32:34.955Z,4.40
2018-01-17T15:35:25.840Z,4.50
2018-01-17T15:38:02.155Z,4.40
2018-01-17T15:40:46.575Z,4.30
2018-01-17T15:46:08.452Z,4.40
2018-01-17T15:49:15.941Z,4.30
2018-01-17T15:51:45.921Z,4.40
2018-01-17T15:54:15.545Z,4.40
2018-01-17T15:56:45.249Z,4.40
2018-01-17T15:59:15.201Z,4.40
2018-01-17T16:01:45.319Z,4.50
2018-01-17T16:04:16.113Z,4.50
2018-01-17T16:06:48.883Z,4.50
2018-01-17T16:09:25.524Z,4.40
2018-01-17T16:11:56.475Z,4.50
2018-01-17T16:14:26.574Z,4.50
2018-01-17T16:17:00.042Z,4.60
2018-01-17T16:19:33.302Z,4.60
2018-01-17T16:22:04.385Z,4.50
2018-01-17T16:24:43.561Z,4.70
2018-01-17T16:27:13.376Z,4.60
2018-01-17T16:29:55.489Z,4.60
2018-01-17T16:32:25.075Z,4.40
2018-01-17T16:34:58.063Z,4.20
2018-01-17T16:37:27.568Z,4.00
2018-01-17T16:39:59.483Z,4.00
2018-01-17T16:42:30.083Z,3.90
2018-01-17T16:45:00.058Z,3.90
2018-01-17T16:47:29.558Z,4.00
2018-01-17T16:49:59.708Z,4.10
2018-01-17T16:52:29.775Z,4.10
2018-01-17T16:54:59.915Z,4.40
2018-01-17T16:57:42.473Z,4.30
2018-01-17T17:00:25.871Z,4.40
2018-01-17T17:03:10.018Z,4.40
2018-01-17T17:05:42.727Z,4.40
2018-01-17T17:08:13.095Z,4.40
2018-01-17T17:10:44.421Z,4.40
2018-01-17T17:13:13.690Z,4.40
2018-01-17T17:15:43.861Z,4.40
2018-01-17T17:18:14.299Z,4.50
2018-01-17T17:20:43.404Z,4.40
2018-01-17T17:23:13.323Z,4.40
2018-01-17T17:25:43.029Z,4.40
2018-01-17T17:28:12.334Z,4.40
2018-01-17T17:30:45.512Z,4.50
2018-01-17T17:33:16.548Z,4.50
2018-01-17T17:35:46.775Z,4.60
2018-01-17T17:38:26.451Z,4.60
2018-01-17T17:41:07.367Z,4.60
2018-01-17T17:43:53.187Z,4.70
2018-01-17T17:46:27.910Z,4.70
2018-01-17T17:48:59.004Z,4.80
2018-01-17T17:51:31.547Z,4.80
2018-01-17T17:54:02.546Z,4.90
2018-01-17T17:56:32.862Z,4.90
2018-01-17T17:59:02.372Z,4.90
2018-01-17T18:01:34.560Z,5.10
2018-01-17T18:04:05.857Z,5.10
2018-01-17T18:06:36.935Z,5.10
2018-01-17T18:09:12.218Z,4.80
2018-01-17T18:11:43.772Z,4.80
2018-01-17T18:14:13.474Z,4.70
2018-01-17T18:16:43.784Z,4.80
2018-01-17T18:19:13.575Z,4.80
2018-01-17T18:21:43.294Z,4.90
2018-01-17T18:24:12.814Z,4.90
2018-01-17T18:26:42.211Z,4.90
2018-01-17T18:29:12.951Z,5.00
2018-01-17T18:31:42.436Z,4.90
2018-01-17T18:34:12.126Z,5.00
2018-01-17T18:36:41.630Z,5.10
2018-01-17T18:39:11.061Z,5.10
2018-01-17T18:41:44.499Z,5.10
2018-01-17T18:44:15.539Z,5.10
2018-01-17T18:46:51.380Z,5.20
2018-01-17T18:49:21.574Z,5.20
2018-01-17T18:51:56.626Z,5.20
2018-01-17T18:54:26.571Z,5.20
2018-01-17T18:56:55.940Z,5.20
2018-01-17T18:59:26.077Z,5.20
2018-01-17T19:01:59.858Z,5.20
2018-01-17T19:04:34.893Z,5.20
2018-01-17T19:07:13.457Z,5.20
2018-01-17T19:09:46.887Z,5.20
2018-01-17T19:12:30.165Z,5.20
2018-01-17T19:15:01.830Z,5.30
2018-01-17T19:17:30.895Z,5.20
2018-01-17T19:20:01.037Z,5.30
2018-01-17T19:22:31.323Z,5.30
2018-01-17T19:25:03.904Z,5.30
2018-01-17T19:27:37.051Z,5.30
2018-01-17T19:30:09.956Z,5.30
2018-01-17T19:32:41.278Z,5.30
2018-01-17T19:35:22.764Z,5.30
2018-01-17T19:38:10.860Z,5.40
2018-01-17T19:40:43.092Z,5.40
2018-01-17T19:43:25.554Z,5.40
2018-01-17T19:45:56.865Z,5.40
2018-01-17T19:48:27.091Z,5.30
2018-01-17T19:51:04.887Z,5.30
2018-01-17T19:53:46.486Z,5.30
2018-01-17T19:56:15.999Z,5.20
2018-01-17T19:58:45.926Z,5.30
2018-01-17T20:01:27.254Z,5.30
2018-01-17T20:04:04.916Z,5.20
2018-01-17T20:06:34.814Z,5.30
2018-01-17T20:09:05.203Z,5.30
2018-01-17T20:11:35.473Z,5.30
2018-01-17T20:14:08.077Z,5.30
2018-01-17T20:16:37.449Z,5.30
2018-01-17T20:19:10.398Z,5.50
2018-01-17T20:21:42.188Z,5.50
2018-01-17T20:24:12.171Z,5.50
2018-01-17T20:26:41.672Z,5.50
2018-01-17T20:29:10.983Z,5.50
2018-01-17T20:31:41.013Z,5.50
2018-01-17T20:34:10.324Z,5.50
2018-01-17T20:36:39.393Z,5.70
2018-01-17T20:39:09.391Z,5.60
2018-01-17T20:41:38.705Z,5.60
2018-01-17T20:44:08.697Z,5.60
2018-01-17T20:46:40.658Z,5.60
2018-01-17T20:49:13.702Z,5.70
2018-01-17T20:51:54.742Z,5.60
2018-01-17T20:54:25.076Z,5.60
2018-01-17T20:56:59.455Z,5.60
2018-01-17T20:59:31.198Z,5.60
2018-01-17T21:02:01.556Z,5.70
2018-01-17T21:04:30.800Z,5.70
2018-01-17T21:07:01.181Z,5.70
2018-01-17T21:09:31.177Z,5.70
2018-01-17T21:12:04.733Z,5.70
2018-01-17T21:14:34.380Z,5.70
2018-01-17T21:17:11.258Z,5.70
2018-01-17T21:19:42.565Z,5.70
2018-01-17T21:22:12.475Z,5.70
2018-01-17T21:24:42.354Z,5.80
2018-01-17T21:27:12.002Z,5.80
2018-01-17T21:29:42.592Z,5.80
2018-01-17T21:32:21.144Z,5.80
2018-01-17T21:34:50.255Z,5.80
2018-01-17T21:37:19.912Z,5.70
2018-01-17T21:39:49.254Z,5.60
2018-01-17T21:42:22.909Z,5.60
2018-01-17T21:45:54.556Z,5.60
2018-01-17T21:48:24.270Z,5.50
2018-01-17T21:50:56.769Z,5.50
2018-01-17T21:53:27.388Z,5.40
2018-01-17T21:55:57.034Z,5.40
2018-01-17T21:58:29.203Z,5.30
2018-01-17T22:00:59.820Z,5.40
2018-01-17T22:03:29.648Z,5.40
2018-01-17T22:06:00.308Z,5.30
2018-01-17T22:08:30.284Z,5.30
2018-01-17T22:11:01.911Z,5.30
2018-01-17T22:13:32.456Z,5.40
2018-01-17T22:16:01.741Z,5.40
2018-01-17T22:18:32.048Z,5.50
2018-01-17T22:21:16.779Z,5.50
2018-01-17T22:23:53.090Z,5.40
2018-01-17T22:26:22.304Z,5.40
2018-01-17T22:28:53.354Z,5.40
2018-01-17T22:31:22.843Z,5.40
2018-01-17T22:33:55.282Z,5.40
2018-01-17T22:36:28.119Z,5.40
2018-01-17T22:39:01.565Z,5.40
2018-01-17T22:41:36.586Z,5.30
2018-01-17T22:44:08.198Z,5.30
2018-01-17T22:46:37.863Z,5.30
2018-01-17T22:49:08.057Z,5.30
2018-01-17T22:51:37.738Z,5.30
2018-01-17T22:54:13.419Z,5.30
2018-01-17T22:56:43.413Z,5.30
2018-01-17T22:59:12.624Z,5.20
2018-01-17T23:01:42.508Z,5.20
2018-01-17T23:04:12.810Z,5.20
2018-01-17T23:06:42.487Z,5.20
2018-01-17T23:09:11.797Z,5.20
2018-01-17T23:11:41.328Z,5.20
2018-01-17T23:14:10.855Z,5.20
2018-01-17T23:16:39.925Z,5.20
2018-01-17T23:19:09.035Z,5.20
2018-01-17T23:21:38.532Z,5.20
2018-01-17T23:24:08.407Z,5.20
2018-01-17T23:26:38.996Z,5.20
2018-01-17T23:29:09.692Z,5.10
2018-01-17T23:31:38.794Z,5.20
2018-01-17T23:34:14.963Z,5.10
2018-01-17T23:36:45.216Z,5.10
2018-01-17T23:39:15.827Z,5.20
2018-01-17T23:41:45.046Z,5.10
2018-01-17T23:44:14.193Z,5.20
2018-01-17T23:46:44.452Z,5.10
2018-01-17T23:49:14.948Z,5.10
2018-01-17T23:51:44.893Z,5.10
2018-01-17T23:54:14.446Z,5.20
2018-01-17T23:56:51.201Z,5.20
2018-01-17T23:59:26.611Z,5.20
